createdAt,value
2019-05-03T00:01:58.176Z,97955.48
2019-05-03T00:04:27.853Z,97959.73
2019-05-03T00:06:57.412Z,97960.47
2019-05-03T00:09:28.403Z,97955.21
2019-05-03T00:11:58.192Z,97957.97
2019-05-03T00:14:27.754Z,97959.05
2019-05-03T00:16:57.425Z,97958.24
2019-05-03T00:19:26.987Z,97954.56
2019-05-03T00:21:56.666Z,97958.44
2019-05-03T00:24:26.169Z,97955.05
2019-05-03T00:26:55.654Z,97956.35
2019-05-03T00:29:25.158Z,97956.98
2019-05-03T00:31:54.626Z,97956.66
2019-05-03T00:34:25.978Z,97957.34
2019-05-03T00:37:16.469Z,97960.41
2019-05-03T00:39:48.003Z,97961.55
2019-05-03T00:42:18.056Z,97963.34
2019-05-03T00:44:47.516Z,97964.99
2019-05-03T00:47:17.056Z,97960.61
2019-05-03T00:49:46.520Z,97956.73
2019-05-03T00:52:16.019Z,97953.30
2019-05-03T00:54:45.502Z,97955.12
2019-05-03T00:57:15.078Z,97956.30
2019-05-03T00:59:44.540Z,97957.45
2019-05-03T01:02:14.326Z,97961.19
2019-05-03T01:04:43.828Z,97962.37
2019-05-03T01:07:13.388Z,97960.73
2019-05-03T01:09:42.944Z,97961.94
2019-05-03T01:12:12.718Z,97963.20
2019-05-03T01:14:43.784Z,97960.86
2019-05-03T01:17:13.320Z,97968.31
2019-05-03T01:19:42.793Z,97964.64
2019-05-03T01:22:12.273Z,97965.73
2019-05-03T01:24:42.782Z,97967.39
2019-05-03T01:27:12.503Z,97966.28
2019-05-03T01:29:42.523Z,97965.02
2019-05-03T01:32:12.140Z,97972.78
2019-05-03T01:34:41.730Z,97970.62
2019-05-03T01:37:11.943Z,97974.34
2019-05-03T01:39:42.119Z,97975.80
2019-05-03T01:42:12.000Z,97973.37
2019-05-03T01:44:42.729Z,97976.12
2019-05-03T01:47:13.952Z,97976.95
2019-05-03T01:49:47.987Z,97981.59
2019-05-03T01:52:19.119Z,97979.00
2019-05-03T01:54:48.609Z,97981.70
2019-05-03T01:57:18.098Z,97981.41
2019-05-03T01:59:47.741Z,97989.59
2019-05-03T02:02:18.850Z,97990.42
2019-05-03T02:04:49.961Z,97988.19
2019-05-03T02:07:19.826Z,97987.17
2019-05-03T02:09:49.326Z,97988.87
2019-05-03T02:12:18.950Z,97989.34
2019-05-03T02:14:48.454Z,97991.45
2019-05-03T02:17:17.949Z,97999.75
2019-05-03T02:19:47.414Z,97999.46
2019-05-03T02:22:16.938Z,97997.58
2019-05-03T02:24:46.444Z,97994.38
2019-05-03T02:27:15.901Z,97994.98
2019-05-03T02:29:45.455Z,97997.88
2019-05-03T02:32:14.935Z,98000.68
2019-05-03T02:34:44.403Z,98002.75
2019-05-03T02:37:14.178Z,97998.41
2019-05-03T02:39:43.679Z,98004.76
2019-05-03T02:42:15.732Z,97997.64
2019-05-03T02:44:46.252Z,97993.56
2019-05-03T02:47:17.295Z,97992.88
2019-05-03T02:49:48.381Z,97997.62
2019-05-03T02:52:19.494Z,97998.37
2019-05-03T02:54:48.972Z,98001.92
2019-05-03T02:57:18.469Z,98002.06
2019-05-03T02:59:49.847Z,98000.31
2019-05-03T03:02:19.314Z,97998.59
2019-05-03T03:04:48.780Z,98000.00
2019-05-03T03:07:19.201Z,97994.17
2019-05-03T03:09:55.906Z,98002.56
2019-05-03T03:12:28.267Z,97995.09
2019-05-03T03:15:01.864Z,97999.33
2019-05-03T03:17:36.444Z,98003.91
2019-05-03T03:20:08.448Z,98005.41
2019-05-03T03:22:45.319Z,98011.92
2019-05-03T03:28:09.536Z,98016.19
2019-05-03T03:30:48.225Z,98018.92
2019-05-03T03:33:34.015Z,98021.53
2019-05-03T03:36:32.055Z,98026.16
2019-05-03T03:38:36.471Z,98023.48
2019-05-03T03:41:06.525Z,98031.32
2019-05-03T03:43:37.879Z,98027.05
2019-05-03T03:46:10.273Z,98037.11
2019-05-03T03:48:41.537Z,98040.44
2019-05-03T03:51:15.526Z,98042.08
2019-05-03T03:53:47.576Z,98042.61
2019-05-03T03:56:19.985Z,98041.98
2019-05-03T03:58:49.864Z,98049.27
2019-05-03T04:01:19.689Z,98052.41
2019-05-03T04:03:49.539Z,98055.80
2019-05-03T04:06:20.947Z,98057.16
2019-05-03T04:08:50.593Z,98063.13
2019-05-03T04:11:20.240Z,98069.03
2019-05-03T04:13:50.086Z,98075.50
2019-05-03T04:16:21.491Z,98072.91
2019-05-03T04:18:55.135Z,98079.20
2019-05-03T04:21:25.475Z,98078.12
2019-05-03T04:23:55.792Z,98081.13
2019-05-03T04:26:29.472Z,98077.55
2019-05-03T04:28:57.189Z,98077.88
2019-05-03T04:31:26.711Z,98080.00
2019-05-03T04:33:56.414Z,98086.88
2019-05-03T04:36:26.412Z,98081.77
2019-05-03T04:38:56.462Z,98080.04
2019-05-03T04:41:26.980Z,98084.22
2019-05-03T04:43:56.718Z,98086.02
2019-05-03T04:46:29.193Z,98087.83
2019-05-03T04:48:58.668Z,98092.39
2019-05-03T04:51:28.155Z,98094.50
2019-05-03T04:53:59.422Z,98098.50
2019-05-03T04:56:28.958Z,98102.05
2019-05-03T04:58:58.430Z,98105.38
2019-05-03T05:01:27.957Z,98107.50
2019-05-03T05:03:57.415Z,98109.88
2019-05-03T05:06:26.911Z,98106.95
2019-05-03T05:08:56.385Z,98110.27
2019-05-03T05:11:26.434Z,98112.10
2019-05-03T05:13:56.314Z,98117.77
2019-05-03T05:16:25.993Z,98117.47
2019-05-03T05:18:57.106Z,98127.28
2019-05-03T05:21:28.179Z,98130.49
2019-05-03T05:23:59.278Z,98127.33
2019-05-03T05:26:30.552Z,98133.09
2019-05-03T05:29:01.661Z,98131.36
2019-05-03T05:31:31.190Z,98131.22
2019-05-03T05:34:00.646Z,98131.42
2019-05-03T05:36:30.141Z,98134.36
2019-05-03T05:38:59.695Z,98137.34
2019-05-03T05:41:29.184Z,98139.13
2019-05-03T05:43:58.638Z,98140.13
2019-05-03T05:46:29.742Z,98142.76
2019-05-03T05:48:59.230Z,98149.32
2019-05-03T05:51:28.686Z,98151.59
2019-05-03T05:53:58.242Z,98152.39
2019-05-03T05:56:29.322Z,98154.79
2019-05-03T05:59:00.432Z,98156.59
2019-05-03T06:01:31.520Z,98151.56
2019-05-03T06:04:00.985Z,98161.54
2019-05-03T06:06:32.071Z,98156.00
2019-05-03T06:09:05.045Z,98156.86
2019-05-03T06:11:55.577Z,98155.23
2019-05-03T06:14:26.850Z,98157.70
2019-05-03T06:16:57.960Z,98156.30
2019-05-03T06:19:29.122Z,98160.23
2019-05-03T06:24:46.155Z,98154.72
2019-05-03T06:27:17.258Z,98152.34
2019-05-03T06:30:10.314Z,98151.45
2019-05-03T06:32:41.460Z,98158.03
2019-05-03T06:35:11.197Z,98160.53
2019-05-03T06:37:59.985Z,98165.30
2019-05-03T06:40:29.634Z,98163.13
2019-05-03T06:43:08.519Z,98168.12
2019-05-03T06:45:30.385Z,98169.09
2019-05-03T06:47:59.846Z,98169.48
2019-05-03T06:50:29.312Z,98164.91
2019-05-03T06:52:59.902Z,98161.64
2019-05-03T06:55:30.066Z,98161.84
2019-05-03T06:57:59.571Z,98157.15
2019-05-03T07:00:31.037Z,98160.23
2019-05-03T07:03:02.304Z,98165.34
2019-05-03T07:05:35.359Z,98169.46
2019-05-03T07:08:06.297Z,98158.17
2019-05-03T07:10:37.475Z,98165.19
2019-05-03T07:13:08.895Z,98161.17
2019-05-03T07:15:38.196Z,98150.90
2019-05-03T07:18:07.695Z,98143.97
2019-05-03T07:20:38.766Z,98137.62
2019-05-03T07:23:08.299Z,98139.98
2019-05-03T07:25:37.797Z,98131.20
2019-05-03T07:28:07.558Z,98134.52
2019-05-03T07:30:37.156Z,98143.31
2019-05-03T07:33:27.555Z,98142.52
2019-05-03T07:35:57.222Z,98127.64
2019-05-03T07:38:26.927Z,98112.87
2019-05-03T07:40:56.415Z,98113.83
2019-05-03T07:43:26.233Z,98105.64
2019-05-03T07:45:55.779Z,98109.29
2019-05-03T07:48:26.145Z,98128.45
2019-05-03T07:51:14.937Z,98125.27
2019-05-03T07:53:45.111Z,98107.70
2019-05-03T07:56:15.949Z,98103.60
2019-05-03T07:59:06.724Z,98126.26
2019-05-03T08:01:38.541Z,98142.34
2019-05-03T08:04:08.125Z,98149.55
2019-05-03T08:06:37.619Z,98154.42
2019-05-03T08:09:09.218Z,98147.89
2019-05-03T08:11:38.920Z,98147.88
2019-05-03T08:14:08.691Z,98151.11
2019-05-03T08:16:38.513Z,98151.70
2019-05-03T08:19:08.049Z,98148.81
2019-05-03T08:21:38.802Z,98154.55
2019-05-03T08:24:08.863Z,98157.21
2019-05-03T08:26:38.336Z,98149.91
2019-05-03T08:29:16.292Z,98153.79
2019-05-03T08:32:00.313Z,98149.72
2019-05-03T08:34:31.425Z,98144.51
2019-05-03T08:37:02.603Z,98149.41
2019-05-03T08:39:32.082Z,98122.40
2019-05-03T08:42:22.518Z,98115.12
2019-05-03T08:44:52.144Z,98114.27
2019-05-03T08:47:21.873Z,98116.64
2019-05-03T08:49:51.380Z,98122.69
2019-05-03T08:52:20.948Z,98129.92
2019-05-03T08:54:59.466Z,98133.84
2019-05-03T08:57:28.954Z,98127.70
2019-05-03T08:59:58.434Z,98118.59
2019-05-03T09:02:28.126Z,98111.44
2019-05-03T09:04:57.582Z,98132.90
2019-05-03T09:07:27.091Z,98132.48
2019-05-03T09:09:58.235Z,98131.30
2019-05-03T09:12:29.314Z,98128.12
2019-05-03T09:14:58.815Z,98125.50
2019-05-03T09:17:28.512Z,98110.41
2019-05-03T09:19:57.997Z,98107.03
2019-05-03T09:22:27.489Z,98096.63
2019-05-03T09:24:56.969Z,98076.02
2019-05-03T09:27:26.469Z,98099.00
2019-05-03T09:29:56.009Z,98096.56
2019-05-03T09:32:25.747Z,98091.55
2019-05-03T09:34:55.298Z,98099.48
2019-05-03T09:37:25.110Z,98102.67
2019-05-03T09:39:55.165Z,98112.27
2019-05-03T09:42:24.985Z,98104.95
2019-05-03T09:44:55.649Z,98110.16
2019-05-03T09:47:25.405Z,98110.72
2019-05-03T09:49:57.511Z,98094.99
2019-05-03T09:52:30.837Z,98082.00
2019-05-03T09:55:01.907Z,98063.74
2019-05-03T09:57:31.378Z,98071.42
2019-05-03T10:00:00.883Z,98089.22
2019-05-03T10:02:30.349Z,98096.34
2019-05-03T10:04:59.849Z,98087.05
2019-05-03T10:07:29.386Z,98091.34
2019-05-03T10:09:59.245Z,98090.34
2019-05-03T10:12:28.748Z,98084.98
2019-05-03T10:15:00.355Z,98082.64
2019-05-03T10:21:11.826Z,98068.14
2019-05-03T10:23:41.526Z,98073.91
2019-05-03T10:26:11.232Z,98077.64
2019-05-03T10:28:40.763Z,98095.20
2019-05-03T10:31:10.241Z,98096.09
2019-05-03T10:33:41.402Z,98089.97
2019-05-03T10:36:11.077Z,98081.30
2019-05-03T10:38:40.565Z,98078.16
2019-05-03T10:41:10.135Z,98075.34
2019-05-03T10:43:39.649Z,98077.11
2019-05-03T10:46:09.113Z,98077.87
2019-05-03T10:48:38.535Z,98074.45
2019-05-03T10:51:08.030Z,98071.34
2019-05-03T10:53:39.107Z,98071.91
2019-05-03T10:56:29.542Z,98059.22
2019-05-03T10:59:19.557Z,98067.32
2019-05-03T11:01:50.667Z,98061.19
2019-05-03T11:04:20.684Z,98067.65
2019-05-03T11:06:50.417Z,98068.54
2019-05-03T11:09:20.014Z,98067.13
2019-05-03T11:11:49.540Z,98068.09
2019-05-03T11:14:19.011Z,98064.04
2019-05-03T11:16:48.563Z,98057.92
2019-05-03T11:19:18.099Z,98057.87
2019-05-03T11:22:06.957Z,98046.97
2019-05-03T11:24:36.421Z,98044.08
2019-05-03T11:27:07.775Z,98044.45
2019-05-03T11:29:37.327Z,98046.78
2019-05-03T11:32:10.366Z,98048.70
2019-05-03T11:34:41.461Z,98048.20
2019-05-03T11:37:14.527Z,98047.75
2019-05-03T11:39:45.199Z,98048.81
2019-05-03T11:42:15.306Z,98055.99
2019-05-03T11:44:46.250Z,98055.97
2019-05-03T11:47:15.752Z,98057.55
2019-05-03T11:49:45.567Z,98059.48
2019-05-03T11:52:16.008Z,98068.73
2019-05-03T11:54:49.801Z,98075.20
2019-05-03T11:57:20.884Z,98087.53
2019-05-03T11:59:50.427Z,98083.66
2019-05-03T12:02:21.538Z,98081.53
2019-05-03T12:04:50.995Z,98081.59
2019-05-03T12:07:35.764Z,98077.45
2019-05-03T12:09:54.707Z,98077.02
2019-05-03T12:12:25.861Z,98075.50
2019-05-03T12:14:55.466Z,98073.31
2019-05-03T12:17:54.272Z,98078.16
2019-05-03T12:20:19.273Z,98078.61
2019-05-03T12:22:49.400Z,98076.69
2019-05-03T12:25:20.325Z,98071.55
2019-05-03T12:27:50.181Z,98068.82
2019-05-03T12:30:20.184Z,98067.11
2019-05-03T12:33:09.349Z,98063.75
2019-05-03T12:35:38.920Z,98059.56
2019-05-03T12:38:08.484Z,98064.06
2019-05-03T12:40:38.013Z,98053.86
2019-05-03T12:43:07.647Z,98053.69
2019-05-03T12:45:56.425Z,98053.88
2019-05-03T12:48:25.888Z,98051.37
2019-05-03T12:50:55.755Z,98050.61
2019-05-03T12:53:25.445Z,98052.06
2019-05-03T12:55:54.924Z,98051.69
2019-05-03T12:58:25.999Z,98051.25
2019-05-03T13:00:57.137Z,98063.16
2019-05-03T13:03:28.205Z,98065.70
2019-05-03T13:05:57.699Z,98067.86
2019-05-03T13:08:31.752Z,98064.19
2019-05-03T13:11:01.314Z,98061.38
2019-05-03T13:13:30.930Z,98054.61
2019-05-03T13:16:00.702Z,98044.36
2019-05-03T13:18:49.543Z,98041.88
2019-05-03T13:21:19.140Z,98041.66
2019-05-03T13:23:48.594Z,98053.60
2019-05-03T13:26:18.070Z,98046.62
2019-05-03T13:28:47.597Z,98042.71
2019-05-03T13:31:17.080Z,98037.92
2019-05-03T13:33:46.587Z,98043.95
2019-05-03T13:36:16.428Z,98035.56
2019-05-03T13:38:45.927Z,98035.69
2019-05-03T13:41:18.099Z,98028.70
2019-05-03T13:43:48.496Z,98024.63
2019-05-03T13:46:17.999Z,98025.47
2019-05-03T13:48:49.264Z,98015.58
2019-05-03T13:51:18.860Z,98017.75
2019-05-03T13:53:48.332Z,98016.08
2019-05-03T13:56:18.275Z,98015.78
2019-05-03T13:58:47.802Z,98001.88
2019-05-03T14:01:17.273Z,97993.15
2019-05-03T14:03:46.771Z,97987.73
2019-05-03T14:06:16.268Z,97987.58
2019-05-03T14:08:45.766Z,97985.09
2019-05-03T14:11:15.638Z,97974.05
2019-05-03T14:13:45.356Z,97974.50
2019-05-03T14:16:14.866Z,97972.22
2019-05-03T14:18:45.934Z,97974.73
2019-05-03T14:21:17.222Z,97974.11
2019-05-03T14:23:51.864Z,97966.84
2019-05-03T14:26:21.369Z,97961.97
2019-05-03T14:28:50.892Z,97957.38
2019-05-03T14:31:25.186Z,97959.00
2019-05-03T14:33:55.832Z,97958.73
2019-05-03T14:36:25.730Z,97954.88
2019-05-03T14:38:55.463Z,97954.48
2019-05-03T14:41:25.538Z,97947.95
2019-05-03T14:43:55.840Z,97960.40
2019-05-03T14:46:32.869Z,97955.30
2019-05-03T14:48:56.756Z,97954.32
2019-05-03T14:51:26.560Z,97957.70
2019-05-03T14:53:57.016Z,97954.35
2019-05-03T14:56:28.320Z,97950.91
2019-05-03T14:58:59.500Z,97957.22
2019-05-03T15:01:30.600Z,97960.66
2019-05-03T15:04:00.636Z,97973.27
2019-05-03T15:06:30.142Z,97977.85
2019-05-03T15:09:07.546Z,97988.34
2019-05-03T15:11:37.052Z,97996.61
2019-05-03T15:14:06.677Z,97989.39
2019-05-03T15:16:36.164Z,97991.86
2019-05-03T15:19:05.734Z,97990.24
2019-05-03T15:21:35.201Z,97990.30
2019-05-03T15:24:05.481Z,97993.77
2019-05-03T15:26:35.717Z,97994.28
2019-05-03T15:29:05.601Z,97983.98
2019-05-03T15:31:35.462Z,97987.43
2019-05-03T15:34:05.286Z,97980.56
2019-05-03T15:36:34.831Z,97983.16
2019-05-03T15:39:05.841Z,97979.27
2019-05-03T15:41:36.423Z,97980.25
2019-05-03T15:46:58.578Z,97975.08
2019-05-03T15:49:28.055Z,97970.31
2019-05-03T15:51:57.542Z,97974.84
2019-05-03T15:54:27.057Z,97971.79
2019-05-03T15:56:56.534Z,97972.00
2019-05-03T15:59:27.554Z,97966.08
2019-05-03T16:01:57.258Z,97967.45
2019-05-03T16:04:26.731Z,97965.11
2019-05-03T16:06:56.201Z,97972.14
2019-05-03T16:09:25.714Z,97964.05
2019-05-03T16:11:55.624Z,97959.66
2019-05-03T16:14:25.401Z,97970.39
2019-05-03T16:16:55.009Z,97967.66
2019-05-03T16:19:24.495Z,97963.97
2019-05-03T16:21:54.573Z,97966.28
2019-05-03T16:24:24.893Z,97961.98
2019-05-03T16:27:08.859Z,97963.72
2019-05-03T16:29:38.391Z,97964.13
2019-05-03T16:32:07.951Z,97963.39
2019-05-03T16:34:37.435Z,97962.35
2019-05-03T16:37:07.134Z,97962.00
2019-05-03T16:39:36.716Z,97960.16
2019-05-03T16:42:06.906Z,97959.67
2019-05-03T16:44:36.567Z,97958.46
2019-05-03T16:47:07.201Z,97959.17
2019-05-03T16:49:36.908Z,97956.63
2019-05-03T16:52:06.533Z,97954.58
2019-05-03T16:54:36.027Z,97959.54
2019-05-03T16:57:24.874Z,97964.04
2019-05-03T17:00:05.686Z,97863.27
2019-05-03T17:02:35.149Z,97958.66
2019-05-03T17:05:07.775Z,97945.08
2019-05-03T17:07:38.834Z,97961.76
2019-05-03T17:10:11.261Z,97961.74
2019-05-03T17:12:40.712Z,97958.59
2019-05-03T17:15:19.569Z,97961.62
2019-05-03T17:17:57.686Z,97961.14
2019-05-03T17:20:27.268Z,97962.34
2019-05-03T17:22:56.737Z,97963.97
2019-05-03T17:25:29.862Z,97959.28
2019-05-03T17:27:59.362Z,97958.95
2019-05-03T17:30:33.656Z,97954.33
2019-05-03T17:33:00.045Z,97961.53
2019-05-03T17:35:29.599Z,97956.00
2019-05-03T17:37:59.123Z,97954.95
2019-05-03T17:40:30.209Z,97951.04
2019-05-03T17:43:01.340Z,97953.89
2019-05-03T17:45:38.474Z,97958.70
2019-05-03T17:48:08.003Z,97957.98
2019-05-03T17:50:37.489Z,97962.48
2019-05-03T17:53:08.555Z,97956.77
2019-05-03T17:55:39.693Z,97962.70
2019-05-03T17:58:10.855Z,97964.56
2019-05-03T18:00:41.955Z,97964.44
2019-05-03T18:03:11.663Z,97973.16
2019-05-03T18:05:44.818Z,97966.95
2019-05-03T18:08:15.675Z,97963.04
2019-05-03T18:10:46.962Z,97964.70
2019-05-03T18:13:16.432Z,97972.07
2019-05-03T18:15:45.902Z,97974.70
2019-05-03T18:18:15.796Z,97971.41
2019-05-03T18:20:45.373Z,97972.23
2019-05-03T18:23:15.397Z,97974.70
2019-05-03T18:25:46.098Z,97974.55
2019-05-03T18:28:15.584Z,97972.23
2019-05-03T18:30:45.529Z,97974.52
2019-05-03T18:33:15.439Z,97977.14
2019-05-03T18:35:45.092Z,97987.21
2019-05-03T18:38:14.923Z,97993.23
2019-05-03T18:40:45.270Z,97991.11
2019-05-03T18:43:16.381Z,97994.34
2019-05-03T18:46:06.982Z,98001.16
2019-05-03T18:48:36.478Z,98002.45
2019-05-03T18:51:06.057Z,98009.33
2019-05-03T18:53:35.565Z,98009.07
2019-05-03T18:56:05.141Z,98007.59
2019-05-03T18:58:34.620Z,98005.97
2019-05-03T19:01:05.345Z,98006.39
2019-05-03T19:03:35.081Z,98003.73
2019-05-03T19:06:06.362Z,98003.39
2019-05-03T19:08:37.529Z,98007.77
2019-05-03T19:11:08.668Z,98003.50
2019-05-03T19:13:41.537Z,98003.16
2019-05-03T19:16:14.917Z,98007.20
2019-05-03T19:18:45.408Z,98002.41
2019-05-03T19:21:15.111Z,98006.98
2019-05-03T19:23:44.848Z,98006.52
2019-05-03T19:26:14.895Z,98004.37
2019-05-03T19:28:44.549Z,98008.45
2019-05-03T19:31:14.320Z,98005.72
2019-05-03T19:33:45.650Z,98005.30
2019-05-03T19:36:15.034Z,98006.55
2019-05-03T19:38:44.676Z,98006.05
2019-05-03T19:41:16.049Z,98002.78
2019-05-03T19:43:45.394Z,98002.39
2019-05-03T19:46:16.590Z,98003.55
2019-05-03T19:48:46.215Z,98006.67
2019-05-03T19:51:15.685Z,98006.70
2019-05-03T19:53:46.797Z,98004.31
2019-05-03T19:56:16.940Z,98007.23
2019-05-03T19:58:46.812Z,98009.81
2019-05-03T20:01:17.934Z,98009.32
2019-05-03T20:03:49.013Z,98008.98
2019-05-03T20:06:20.022Z,98011.23
2019-05-03T20:08:51.414Z,98005.77
2019-05-03T20:11:20.894Z,98004.08
2019-05-03T20:13:50.358Z,98001.09
2019-05-03T20:16:19.844Z,98007.36
2019-05-03T20:18:49.308Z,98001.22
2019-05-03T20:21:18.961Z,98008.45
2019-05-03T20:23:48.978Z,98006.92
2019-05-03T20:26:18.508Z,98012.89
2019-05-03T20:28:47.986Z,98009.50
2019-05-03T20:31:17.528Z,98008.23
2019-05-03T20:33:46.988Z,98007.47
2019-05-03T20:36:16.543Z,98014.08
2019-05-03T20:38:46.045Z,98008.52
2019-05-03T20:41:15.553Z,98007.16
2019-05-03T20:43:46.778Z,98014.05
2019-05-03T20:46:37.214Z,98015.33
2019-05-03T20:49:08.317Z,98011.67
2019-05-03T20:51:37.795Z,98011.81
2019-05-03T20:54:07.299Z,98009.62
2019-05-03T20:56:56.094Z,98008.98
2019-05-03T20:59:25.596Z,98007.21
2019-05-03T21:01:55.072Z,98008.86
2019-05-03T21:04:24.835Z,98004.36
2019-05-03T21:06:55.214Z,98006.64
2019-05-03T21:09:24.833Z,98011.91
2019-05-03T21:12:00.209Z,98011.77
2019-05-03T21:14:29.663Z,98009.98
2019-05-03T21:17:00.764Z,98006.55
2019-05-03T21:19:31.880Z,98009.34
2019-05-03T21:22:02.969Z,98007.31
2019-05-03T21:24:34.879Z,98007.89
2019-05-03T21:27:05.092Z,98005.92
2019-05-03T21:29:36.167Z,97997.67
2019-05-03T21:32:05.653Z,98002.73
2019-05-03T21:34:35.146Z,98002.88
2019-05-03T21:37:04.780Z,98003.17
2019-05-03T21:39:34.850Z,98003.74
2019-05-03T21:42:04.765Z,97999.02
2019-05-03T21:44:35.362Z,97995.44
2019-05-03T21:47:06.588Z,97999.16
2019-05-03T21:49:37.776Z,97998.08
2019-05-03T21:52:07.430Z,97999.01
2019-05-03T21:54:36.889Z,97998.34
2019-05-03T21:57:06.405Z,98001.85
2019-05-03T21:59:35.883Z,97997.22
2019-05-03T22:02:05.437Z,97992.77
2019-05-03T22:04:54.247Z,97987.70
2019-05-03T22:07:26.519Z,97983.82
2019-05-03T22:10:00.860Z,97984.15
2019-05-03T22:12:30.345Z,97983.80
2019-05-03T22:15:20.751Z,97981.60
2019-05-03T22:17:51.841Z,97973.80
2019-05-03T22:20:24.615Z,97972.83
2019-05-03T22:22:55.867Z,97967.05
2019-05-03T22:25:26.967Z,97963.50
2019-05-03T22:27:56.520Z,97955.31
2019-05-03T22:30:26.899Z,97952.91
2019-05-03T22:32:56.530Z,97954.40
2019-05-03T22:35:25.991Z,97952.51
2019-05-03T22:37:55.558Z,97951.44
2019-05-03T22:40:25.268Z,97949.51
2019-05-03T22:42:54.861Z,97949.89
2019-05-03T22:45:45.623Z,97948.86
2019-05-03T22:48:14.908Z,97942.81
2019-05-03T22:50:44.904Z,97945.17
2019-05-03T22:53:14.837Z,97941.05
2019-05-03T22:56:04.929Z,97940.34
2019-05-03T22:58:35.450Z,97937.88
2019-05-03T23:01:05.226Z,97935.55
2019-05-03T23:03:36.324Z,97939.66
2019-05-03T23:06:05.859Z,97932.72
2019-05-03T23:08:35.334Z,97925.55
2019-05-03T23:11:05.271Z,97920.30
2019-05-03T23:13:34.874Z,97913.77
2019-05-03T23:16:05.166Z,97919.52
2019-05-03T23:18:35.131Z,97914.81
2019-05-03T23:21:06.305Z,97907.11
2019-05-03T23:23:37.444Z,97908.55
2019-05-03T23:26:06.932Z,97909.08
2019-05-03T23:28:36.512Z,97904.70
2019-05-03T23:31:06.003Z,97897.55
2019-05-03T23:33:35.485Z,97899.81
2019-05-03T23:36:05.174Z,97897.44
2019-05-03T23:38:54.655Z,97896.91
2019-05-03T23:41:24.621Z,97892.19
2019-05-03T23:43:54.123Z,97888.41
2019-05-03T23:46:25.317Z,97885.32
2019-05-03T23:48:54.961Z,97884.73
2019-05-03T23:51:26.048Z,97876.43
2019-05-03T23:53:55.528Z,97876.70
2019-05-03T23:56:25.163Z,97871.43
2019-05-03T23:58:55.122Z,97863.63
